Sumerduck, Virginia
Current Conditions -  °F | °C
As of 3:55 AM on Wednesday 26 Nov 2014 (Local Time) from KHWY Reporting Station
Light Rain Light Rain  
Wind Chill: 46°   Ceiling: 4800
Heat Index: 46°   Visibility: 10mi
Dew Point: 45°   Wind: 3mph
Humidity: 96%   Direction: 10°N
Pressure: 30.05"   Gusts: NA
Location:  38.47°N, 77.71°W
Report Text: KHWY 260855Z AUTO 01003KT 10SM -RA OVC048 08/07 A3005 RMK AO2 P0001 60001 T00760070
Loading
Personal Weather Stations






























Interactive Weather Map New forecast layout! Learn more

10-Day Weather Forecast

Advertisements
Track Severe Weather on mobile